Enos, Illinois
Current Conditions -  °F | °C
As of 11:35 AM on Friday 21 Nov 2014 (Local Time) from K3LF Reporting Station
Clear Clear  
Wind Chill: 23°   Ceiling: Unl
Heat Index: 33°   Visibility: 10mi
Dew Point: 14°   Wind: 15mph
Humidity: 46%   Direction: 130°SE
Pressure: 30.4"   Gusts: NA
Location:  39.2714°N, 89.9463°W
Report Text: K3LF 211735Z AUTO 13013KT 10SM CLR 00/M10 A3040 RMK AO2 T00041100
Loading
Personal Weather Stations






























Interactive Weather Map New forecast layout! Learn more

10-Day Weather Forecast

Advertisements
Track Severe Weather on mobile